createdAt,value
2018-03-07T00:00:18.584Z,7.38
2018-03-07T00:01:18.572Z,7.32
2018-03-07T00:02:18.545Z,7.34
2018-03-07T00:03:18.529Z,7.31
2018-03-07T00:04:18.502Z,7.32
2018-03-07T00:05:18.489Z,7.24
2018-03-07T00:06:18.479Z,7.26
2018-03-07T00:07:18.450Z,7.31
2018-03-07T00:08:18.438Z,7.26
2018-03-07T00:09:18.418Z,7.31
2018-03-07T00:10:18.412Z,7.29
2018-03-07T00:11:18.383Z,7.32
2018-03-07T00:12:18.358Z,7.26
2018-03-07T00:13:18.345Z,7.22
2018-03-07T00:14:18.315Z,7.23
2018-03-07T00:15:18.299Z,7.17
2018-03-07T00:16:18.284Z,7.34
2018-03-07T00:17:18.267Z,7.17
2018-03-07T00:18:18.249Z,7.26
2018-03-07T00:19:18.232Z,7.31
2018-03-07T00:20:18.237Z,7.27
2018-03-07T00:21:18.190Z,7.17
2018-03-07T00:22:18.171Z,7.37
2018-03-07T00:23:18.152Z,7.31
2018-03-07T00:24:18.132Z,7.22
2018-03-07T00:25:18.116Z,7.24
2018-03-07T00:26:18.097Z,7.23
2018-03-07T00:27:18.084Z,7.29
2018-03-07T00:28:18.060Z,7.22
2018-03-07T00:29:18.039Z,7.23
2018-03-07T00:30:18.023Z,7.24
2018-03-07T00:31:17.996Z,7.26
2018-03-07T00:32:17.988Z,7.23
2018-03-07T00:33:17.958Z,7.23
2018-03-07T00:34:17.943Z,7.32
2018-03-07T00:35:17.952Z,7.24
2018-03-07T00:36:17.912Z,7.32
2018-03-07T00:37:17.888Z,7.29
2018-03-07T00:38:17.868Z,7.13
2018-03-07T00:39:17.858Z,7.22
2018-03-07T00:40:17.847Z,7.19
2018-03-07T00:41:17.818Z,7.19
2018-03-07T00:42:17.788Z,7.26
2018-03-07T00:43:17.776Z,7.26
2018-03-07T00:44:17.770Z,7.23
2018-03-07T00:45:17.731Z,7.26
2018-03-07T00:46:17.722Z,7.29
2018-03-07T00:47:17.696Z,7.32
2018-03-07T00:48:17.680Z,7.27
2018-03-07T00:49:17.657Z,7.31
2018-03-07T00:50:17.639Z,7.24
2018-03-07T00:51:17.623Z,7.29
2018-03-07T00:52:17.606Z,7.31
2018-03-07T00:53:17.581Z,7.29
2018-03-07T00:54:17.587Z,7.26
2018-03-07T00:55:17.543Z,7.27
2018-03-07T00:56:17.530Z,7.27
2018-03-07T00:57:17.510Z,7.29
2018-03-07T00:58:17.490Z,7.27
2018-03-07T00:59:17.466Z,7.22
2018-03-07T01:00:17.459Z,7.26
2018-03-07T01:01:17.436Z,7.22
2018-03-07T01:02:17.414Z,7.17
2018-03-07T01:03:17.398Z,7.17
2018-03-07T01:04:17.388Z,7.12
2018-03-07T01:05:17.362Z,7.17
2018-03-07T01:06:17.334Z,7.12
2018-03-07T01:07:17.320Z,7.13
2018-03-07T01:08:17.300Z,7.13
2018-03-07T01:09:17.278Z,7.13
2018-03-07T01:10:17.270Z,7.08
2018-03-07T01:11:17.253Z,7.07
2018-03-07T01:12:17.229Z,7.07
2018-03-07T01:13:17.246Z,7.02
2018-03-07T01:14:17.185Z,6.94
2018-03-07T01:15:17.169Z,7.04
2018-03-07T01:16:17.156Z,7.07
2018-03-07T01:17:17.134Z,6.97
2018-03-07T01:18:17.128Z,7.09
2018-03-07T01:19:17.092Z,6.98
2018-03-07T01:20:17.077Z,6.95
2018-03-07T01:21:17.067Z,7.04
2018-03-07T01:22:17.038Z,7.01
2018-03-07T01:23:17.013Z,6.97
2018-03-07T01:24:16.996Z,6.94
2018-03-07T01:25:16.990Z,6.84
2018-03-07T01:26:16.973Z,6.84
2018-03-07T01:27:16.939Z,6.83
2018-03-07T01:28:16.933Z,6.83
2018-03-07T01:29:16.907Z,6.79
2018-03-07T01:30:16.886Z,6.77
2018-03-07T01:31:16.897Z,6.83
2018-03-07T01:32:16.840Z,6.83
2018-03-07T01:33:16.830Z,6.83
2018-03-07T01:34:16.804Z,6.86
2018-03-07T01:35:16.785Z,6.81
2018-03-07T01:36:16.773Z,6.84
2018-03-07T01:37:16.744Z,6.87
2018-03-07T01:38:16.732Z,6.83
2018-03-07T01:39:16.709Z,6.86
2018-03-07T01:40:16.687Z,6.83
2018-03-07T01:41:16.725Z,6.81
2018-03-07T01:42:16.656Z,6.83
2018-03-07T01:43:16.641Z,6.86
2018-03-07T01:44:16.622Z,6.83
2018-03-07T01:45:16.604Z,6.84
2018-03-07T01:46:16.572Z,6.81
2018-03-07T01:47:16.562Z,6.77
2018-03-07T01:48:16.536Z,6.81
2018-03-07T01:49:16.524Z,6.76
2018-03-07T01:50:16.496Z,6.86
2018-03-07T01:51:16.483Z,6.90
2018-03-07T01:52:16.467Z,6.86
2018-03-07T01:53:16.448Z,6.80
2018-03-07T01:54:16.423Z,6.91
2018-03-07T01:55:16.400Z,6.98
2018-03-07T01:56:16.380Z,6.99
2018-03-07T01:57:16.374Z,6.97
2018-03-07T01:58:16.383Z,6.95
2018-03-07T01:59:16.336Z,6.99
2018-03-07T02:00:16.306Z,7.04
2018-03-07T02:01:16.290Z,6.98
2018-03-07T02:02:16.263Z,7.04
2018-03-07T02:03:16.248Z,7.02
2018-03-07T02:04:16.229Z,6.98
2018-03-07T02:05:16.207Z,6.98
2018-03-07T02:06:16.190Z,6.97
2018-03-07T02:07:16.193Z,6.97
2018-03-07T02:08:16.165Z,6.94
2018-03-07T02:09:16.136Z,7.04
2018-03-07T02:10:16.118Z,6.95
2018-03-07T02:11:16.099Z,7.01
2018-03-07T02:12:16.080Z,7.01
2018-03-07T02:13:16.103Z,6.98
2018-03-07T02:14:16.045Z,6.99
2018-03-07T02:15:16.026Z,6.94
2018-03-07T02:16:16.003Z,6.83
2018-03-07T02:17:15.990Z,6.73
2018-03-07T02:18:15.971Z,6.83
2018-03-07T02:19:15.948Z,6.84
2018-03-07T02:20:15.923Z,6.81
2018-03-07T02:21:15.939Z,6.86
2018-03-07T02:22:15.903Z,6.81
2018-03-07T02:23:15.890Z,6.81
2018-03-07T02:24:15.845Z,6.83
2018-03-07T02:25:15.859Z,6.76
2018-03-07T02:26:15.800Z,6.65
2018-03-07T02:27:15.794Z,6.69
2018-03-07T02:28:15.766Z,6.66
2018-03-07T02:29:15.753Z,6.62
2018-03-07T02:30:15.728Z,6.62
2018-03-07T02:31:15.713Z,6.61
2018-03-07T02:32:15.694Z,6.63
2018-03-07T02:33:15.675Z,6.54
2018-03-07T02:34:15.656Z,6.51
2018-03-07T02:35:15.682Z,6.48
2018-03-07T02:36:15.617Z,6.50
2018-03-07T02:37:15.591Z,6.46
2018-03-07T02:38:15.573Z,6.41
2018-03-07T02:39:15.560Z,6.40
2018-03-07T02:40:15.535Z,6.36
2018-03-07T02:41:15.521Z,6.40
2018-03-07T02:42:15.495Z,6.28
2018-03-07T02:43:15.478Z,6.29
2018-03-07T02:44:15.463Z,6.44
2018-03-07T02:45:15.454Z,6.36
2018-03-07T02:46:15.425Z,6.35
2018-03-07T02:47:15.402Z,6.35
2018-03-07T02:48:15.396Z,6.35
2018-03-07T02:49:15.364Z,6.35
2018-03-07T02:50:15.348Z,6.33
2018-03-07T02:51:15.319Z,6.26
2018-03-07T02:52:15.302Z,6.16
2018-03-07T02:53:15.284Z,6.33
2018-03-07T02:54:15.265Z,6.26
2018-03-07T02:55:15.239Z,6.18
2018-03-07T02:56:15.220Z,6.21
2018-03-07T02:57:15.213Z,6.25
2018-03-07T02:58:15.223Z,6.14
2018-03-07T02:59:15.179Z,6.22
2018-03-07T03:00:15.149Z,6.09
2018-03-07T03:01:15.130Z,6.16
2018-03-07T03:02:15.107Z,6.14
2018-03-07T03:03:15.091Z,6.18
2018-03-07T03:04:15.076Z,6.21
2018-03-07T03:05:15.055Z,6.18
2018-03-07T03:06:15.030Z,6.19
2018-03-07T03:07:15.018Z,6.26
2018-03-07T03:08:15.043Z,6.14
2018-03-07T03:09:14.979Z,6.13
2018-03-07T03:10:14.956Z,6.18
2018-03-07T03:11:14.926Z,6.16
2018-03-07T03:12:14.913Z,6.26
2018-03-07T03:13:15.545Z,6.13
2018-03-07T03:14:14.872Z,6.14
2018-03-07T03:15:14.855Z,6.19
2018-03-07T03:16:14.861Z,6.09
2018-03-07T03:17:14.817Z,6.04
2018-03-07T03:18:14.820Z,6.07
2018-03-07T03:19:14.776Z,6.01
2018-03-07T03:20:14.750Z,6.03
2018-03-07T03:21:14.750Z,6.06
2018-03-07T03:22:14.737Z,6.07
2018-03-07T03:23:14.702Z,6.06
2018-03-07T03:24:14.679Z,6.04
2018-03-07T03:25:14.660Z,6.10
2018-03-07T03:26:14.650Z,6.07
2018-03-07T03:27:14.632Z,6.10
2018-03-07T03:28:14.612Z,6.11
2018-03-07T03:29:14.577Z,6.10
2018-03-07T03:30:14.562Z,6.04
2018-03-07T03:31:14.575Z,6.10
2018-03-07T03:32:14.537Z,6.10
2018-03-07T03:33:14.508Z,6.10
2018-03-07T03:34:14.478Z,6.11
2018-03-07T03:35:14.459Z,6.09
2018-03-07T03:36:14.440Z,6.07
2018-03-07T03:37:14.427Z,6.01
2018-03-07T03:38:14.428Z,6.10
2018-03-07T03:39:14.390Z,6.01
2018-03-07T03:40:14.370Z,6.01
2018-03-07T03:41:14.344Z,5.96
2018-03-07T03:42:14.325Z,5.96
2018-03-07T03:43:14.307Z,5.89
2018-03-07T03:44:14.293Z,5.98
2018-03-07T03:45:14.278Z,6.00
2018-03-07T03:46:14.246Z,6.00
2018-03-07T03:47:14.229Z,6.01
2018-03-07T03:48:14.224Z,6.00
2018-03-07T03:49:14.195Z,5.96
2018-03-07T03:50:14.166Z,5.96
2018-03-07T03:51:14.159Z,5.96
2018-03-07T03:52:14.133Z,6.04
2018-03-07T03:53:14.115Z,5.98
2018-03-07T03:54:14.097Z,5.89
2018-03-07T03:55:14.077Z,5.86
2018-03-07T03:56:14.087Z,5.88
2018-03-07T03:57:14.038Z,5.78
2018-03-07T03:58:14.016Z,5.70
2018-03-07T03:59:13.993Z,5.70
2018-03-07T04:00:13.965Z,5.68
2018-03-07T04:01:13.959Z,5.59
2018-03-07T04:02:13.956Z,5.73
2018-03-07T04:03:13.913Z,5.59
2018-03-07T04:04:13.906Z,5.49
2018-03-07T04:05:13.870Z,5.50
2018-03-07T04:06:13.878Z,5.46
2018-03-07T04:07:13.839Z,5.41
2018-03-07T04:08:13.823Z,5.35
2018-03-07T04:09:13.800Z,5.31
2018-03-07T04:10:13.771Z,5.20
2018-03-07T04:11:13.746Z,5.17
2018-03-07T04:12:13.736Z,5.14
2018-03-07T04:13:13.712Z,5.16
2018-03-07T04:14:13.702Z,5.14
2018-03-07T04:15:13.676Z,4.99
2018-03-07T04:16:13.664Z,5.04
2018-03-07T04:17:13.642Z,4.99
2018-03-07T04:18:13.619Z,4.83
2018-03-07T04:19:13.592Z,4.88
2018-03-07T04:20:13.577Z,4.80
2018-03-07T04:21:13.571Z,4.80
2018-03-07T04:22:13.539Z,4.80
2018-03-07T04:23:13.514Z,4.73
2018-03-07T04:24:13.495Z,4.73
2018-03-07T04:25:13.480Z,4.67
2018-03-07T04:26:13.462Z,4.59
2018-03-07T04:27:13.439Z,4.59
2018-03-07T04:28:13.412Z,4.57
2018-03-07T04:29:13.404Z,4.54
2018-03-07T04:30:13.376Z,4.43
2018-03-07T04:31:13.391Z,4.33
2018-03-07T04:32:13.332Z,4.26
2018-03-07T04:33:13.320Z,4.24
2018-03-07T04:34:13.301Z,4.14
2018-03-07T04:35:13.281Z,4.03
2018-03-07T04:36:13.261Z,3.96
2018-03-07T04:37:13.240Z,3.97
2018-03-07T04:38:13.217Z,3.90
2018-03-07T04:39:13.192Z,3.85
2018-03-07T04:40:13.182Z,3.85
2018-03-07T04:41:13.156Z,3.90
2018-03-07T04:42:13.130Z,3.88
2018-03-07T04:43:13.112Z,3.72
2018-03-07T04:44:13.093Z,3.75
2018-03-07T04:45:13.070Z,3.70
2018-03-07T04:46:13.051Z,3.68
2018-03-07T04:47:13.028Z,3.78
2018-03-07T04:48:13.025Z,3.70
2018-03-07T04:49:12.991Z,3.58
2018-03-07T04:50:12.977Z,3.54
2018-03-07T04:51:12.956Z,3.49
2018-03-07T04:52:12.932Z,3.50
2018-03-07T04:53:12.912Z,3.46
2018-03-07T04:54:12.891Z,3.34
2018-03-07T04:55:12.871Z,3.25
2018-03-07T04:56:12.871Z,3.27
2018-03-07T04:57:12.830Z,3.23
2018-03-07T04:58:12.875Z,3.09
2018-03-07T04:59:12.795Z,3.09
2018-03-07T05:00:12.769Z,3.18
2018-03-07T05:01:12.754Z,3.09
2018-03-07T05:02:12.730Z,3.07
2018-03-07T05:03:12.707Z,3.09
2018-03-07T05:04:12.684Z,3.07
2018-03-07T05:05:12.669Z,3.00
2018-03-07T05:06:12.646Z,3.06
2018-03-07T05:07:12.628Z,2.95
2018-03-07T05:08:12.624Z,3.02
2018-03-07T05:09:12.585Z,2.97
2018-03-07T05:10:12.561Z,3.02
2018-03-07T05:11:12.538Z,3.00
2018-03-07T05:12:12.519Z,2.91
2018-03-07T05:13:12.494Z,2.87
2018-03-07T05:14:12.485Z,2.89
2018-03-07T05:15:12.501Z,2.85
2018-03-07T05:16:12.466Z,2.81
2018-03-07T05:17:12.421Z,2.74
2018-03-07T05:18:12.402Z,2.67
2018-03-07T05:19:12.379Z,2.61
2018-03-07T05:20:12.353Z,2.67
2018-03-07T05:21:12.338Z,2.53
2018-03-07T05:22:12.322Z,2.49
2018-03-07T05:23:12.296Z,2.56
2018-03-07T05:24:12.270Z,2.56
2018-03-07T05:25:12.260Z,2.56
2018-03-07T05:26:12.229Z,2.58
2018-03-07T05:27:12.206Z,2.55
2018-03-07T05:28:12.188Z,2.55
2018-03-07T05:29:12.172Z,2.52
2018-03-07T05:30:12.152Z,2.56
2018-03-07T05:31:12.121Z,2.52
2018-03-07T05:32:12.107Z,2.58
2018-03-07T05:33:12.089Z,2.41
2018-03-07T05:34:12.061Z,2.38
2018-03-07T05:35:12.123Z,2.31
2018-03-07T05:36:12.028Z,2.37
2018-03-07T05:37:12.008Z,2.37
2018-03-07T05:38:11.986Z,2.34
2018-03-07T05:39:11.964Z,2.35
2018-03-07T05:40:11.948Z,2.31
2018-03-07T05:41:11.925Z,2.23
2018-03-07T05:42:11.894Z,2.23
2018-03-07T05:43:11.908Z,2.19
2018-03-07T05:44:11.859Z,2.20
2018-03-07T05:45:11.853Z,2.23
2018-03-07T05:46:11.811Z,2.34
2018-03-07T05:47:11.798Z,2.41
2018-03-07T05:48:11.773Z,2.49
2018-03-07T05:49:11.756Z,2.61
2018-03-07T05:50:11.727Z,2.63
2018-03-07T05:51:11.720Z,2.70
2018-03-07T05:52:11.690Z,2.67
2018-03-07T05:53:11.665Z,2.70
2018-03-07T05:54:11.645Z,2.71
2018-03-07T05:55:11.623Z,2.81
2018-03-07T05:56:11.604Z,2.74
2018-03-07T05:57:11.581Z,2.91
2018-03-07T05:58:11.565Z,2.79
2018-03-07T05:59:11.551Z,2.69
2018-03-07T06:00:11.524Z,2.64
2018-03-07T06:01:11.507Z,2.59
2018-03-07T06:02:11.479Z,2.61
2018-03-07T06:03:11.470Z,2.61
2018-03-07T06:04:11.443Z,2.59
2018-03-07T06:05:11.420Z,2.45
2018-03-07T06:06:11.404Z,2.45
2018-03-07T06:07:11.365Z,2.51
2018-03-07T06:08:11.369Z,2.41
2018-03-07T06:09:11.362Z,2.38
2018-03-07T06:10:11.307Z,2.44
2018-03-07T06:11:11.297Z,2.35
2018-03-07T06:12:11.287Z,2.37
2018-03-07T06:13:11.249Z,2.41
2018-03-07T06:14:11.222Z,2.46
2018-03-07T06:15:11.207Z,2.51
2018-03-07T06:16:11.178Z,2.53
2018-03-07T06:17:11.162Z,2.51
2018-03-07T06:18:11.159Z,2.66
2018-03-07T06:19:11.124Z,2.70
2018-03-07T06:20:11.101Z,2.70
2018-03-07T06:21:11.086Z,2.79
2018-03-07T06:22:11.055Z,2.87
2018-03-07T06:23:11.051Z,2.95
2018-03-07T06:24:11.014Z,3.00
2018-03-07T06:25:11.002Z,2.97
2018-03-07T06:26:11.082Z,3.05
2018-03-07T06:27:10.955Z,3.05
2018-03-07T06:28:10.925Z,3.23
2018-03-07T06:29:10.914Z,3.20
2018-03-07T06:30:10.895Z,3.20
2018-03-07T06:31:10.872Z,3.25
2018-03-07T06:32:10.850Z,3.46
2018-03-07T06:33:10.831Z,3.76
2018-03-07T06:34:10.878Z,3.88
2018-03-07T06:35:10.792Z,3.96
2018-03-07T06:36:10.757Z,4.22
2018-03-07T06:37:10.744Z,4.25
2018-03-07T06:38:10.744Z,4.44
2018-03-07T06:39:10.699Z,4.58
2018-03-07T06:40:10.693Z,4.62
2018-03-07T06:41:10.733Z,4.69
2018-03-07T06:42:10.639Z,4.84
2018-03-07T06:43:10.652Z,4.89
2018-03-07T06:44:10.606Z,4.96
2018-03-07T06:45:10.597Z,5.01
2018-03-07T06:46:10.558Z,5.12
2018-03-07T06:47:10.539Z,5.17
2018-03-07T06:48:10.529Z,5.16
2018-03-07T06:49:10.501Z,5.31
2018-03-07T06:50:10.530Z,5.25
2018-03-07T06:51:10.479Z,5.25
2018-03-07T06:52:10.440Z,5.35
2018-03-07T06:53:10.415Z,5.35
2018-03-07T06:54:10.404Z,5.35
2018-03-07T06:55:10.382Z,5.43
2018-03-07T06:56:10.379Z,5.37
2018-03-07T06:57:10.360Z,5.43
2018-03-07T06:58:10.344Z,5.48
2018-03-07T06:59:10.295Z,5.46
2018-03-07T07:00:10.308Z,5.48
2018-03-07T07:01:10.260Z,5.45
2018-03-07T07:02:10.247Z,5.50
2018-03-07T07:03:10.225Z,5.48
2018-03-07T07:04:10.202Z,5.55
2018-03-07T07:05:10.196Z,5.43
2018-03-07T07:06:10.188Z,5.45
2018-03-07T07:07:10.134Z,5.41
2018-03-07T07:08:10.141Z,5.41
2018-03-07T07:09:10.099Z,5.46
2018-03-07T07:10:10.085Z,5.37
2018-03-07T07:11:10.060Z,5.40
2018-03-07T07:12:10.041Z,5.32
2018-03-07T07:13:10.040Z,5.46
2018-03-07T07:14:09.989Z,5.46
2018-03-07T07:15:09.994Z,5.46
2018-03-07T07:16:09.951Z,5.45
2018-03-07T07:17:09.941Z,5.53
2018-03-07T07:18:09.926Z,5.55
2018-03-07T07:19:09.904Z,5.49
2018-03-07T07:20:09.891Z,5.53
2018-03-07T07:21:09.882Z,5.60
2018-03-07T07:22:09.853Z,5.53
2018-03-07T07:23:09.816Z,5.66
2018-03-07T07:24:09.795Z,5.50
2018-03-07T07:25:09.781Z,5.48
2018-03-07T07:26:09.753Z,5.63
2018-03-07T07:27:09.734Z,5.57
2018-03-07T07:28:09.718Z,5.57
2018-03-07T07:29:09.709Z,5.53
2018-03-07T07:30:09.693Z,5.57
2018-03-07T07:31:09.664Z,5.55
2018-03-07T07:32:09.651Z,5.66
2018-03-07T07:33:09.632Z,5.64
2018-03-07T07:34:09.609Z,5.66
2018-03-07T07:35:09.580Z,5.67
2018-03-07T07:36:09.559Z,5.73
2018-03-07T07:37:09.540Z,5.74
2018-03-07T07:38:09.518Z,5.81
2018-03-07T07:39:09.511Z,5.71
2018-03-07T07:40:09.479Z,5.81
2018-03-07T07:41:09.466Z,5.86
2018-03-07T07:42:09.457Z,5.86
2018-03-07T07:43:09.442Z,5.82
2018-03-07T07:44:09.392Z,5.78
2018-03-07T07:45:09.409Z,5.85
2018-03-07T07:46:09.361Z,5.83
2018-03-07T07:47:09.355Z,5.89
2018-03-07T07:48:09.316Z,6.00
2018-03-07T07:49:09.304Z,5.98
2018-03-07T07:50:09.332Z,5.98
2018-03-07T07:51:09.279Z,6.04
2018-03-07T07:52:09.237Z,6.03
2018-03-07T07:53:09.225Z,6.06
2018-03-07T07:54:09.228Z,6.11
2018-03-07T07:55:09.179Z,6.11
2018-03-07T07:56:09.167Z,6.11
2018-03-07T07:57:09.157Z,6.16
2018-03-07T07:58:09.124Z,6.25
2018-03-07T07:59:09.107Z,6.26
2018-03-07T08:00:09.088Z,6.33
2018-03-07T08:01:09.085Z,6.41
2018-03-07T08:02:09.044Z,6.50
2018-03-07T08:03:09.040Z,6.50
2018-03-07T08:04:09.034Z,6.62
2018-03-07T08:05:09.021Z,6.61
2018-03-07T08:06:08.985Z,6.62
2018-03-07T08:07:08.961Z,6.62
2018-03-07T08:08:08.971Z,6.61
2018-03-07T08:09:08.910Z,6.72
2018-03-07T08:10:08.891Z,6.73
2018-03-07T08:11:08.875Z,6.81
2018-03-07T08:12:08.859Z,6.84
2018-03-07T08:13:08.837Z,6.97
2018-03-07T08:14:08.819Z,6.91
2018-03-07T08:15:08.798Z,6.97
2018-03-07T08:16:08.799Z,7.12
2018-03-07T08:17:08.761Z,7.05
2018-03-07T08:18:08.784Z,7.09
2018-03-07T08:19:08.720Z,7.07
2018-03-07T08:20:08.718Z,7.17
2018-03-07T08:21:08.695Z,7.17
2018-03-07T08:22:08.682Z,7.13
2018-03-07T08:23:08.647Z,7.15
2018-03-07T08:24:08.724Z,7.17
2018-03-07T08:25:08.618Z,7.20
2018-03-07T08:26:08.608Z,7.24
2018-03-07T08:27:08.616Z,7.24
2018-03-07T08:28:08.567Z,7.35
2018-03-07T08:29:08.542Z,7.40
2018-03-07T08:30:08.521Z,7.40
2018-03-07T08:31:08.523Z,7.45
2018-03-07T08:32:08.495Z,7.47
2018-03-07T08:33:08.468Z,7.52
2018-03-07T08:34:08.451Z,7.47
2018-03-07T08:35:08.479Z,7.52
2018-03-07T08:36:08.419Z,7.50
2018-03-07T08:37:08.404Z,7.56
2018-03-07T08:38:08.399Z,7.67
2018-03-07T08:39:08.375Z,7.74
2018-03-07T08:40:08.345Z,7.66
2018-03-07T08:41:08.326Z,7.77
2018-03-07T08:42:08.313Z,7.82
2018-03-07T08:43:08.300Z,7.85
2018-03-07T08:44:08.271Z,7.89
2018-03-07T08:45:08.265Z,7.93
2018-03-07T08:46:08.242Z,8.00
2018-03-07T08:47:08.230Z,8.00
2018-03-07T08:48:08.200Z,7.99
2018-03-07T08:49:08.176Z,8.02
2018-03-07T08:50:08.204Z,8.00
2018-03-07T08:51:08.182Z,7.92
2018-03-07T08:52:08.130Z,7.92
2018-03-07T08:53:08.118Z,8.08
2018-03-07T08:54:08.095Z,7.97
2018-03-07T08:55:08.083Z,7.99
2018-03-07T08:56:08.061Z,8.00
2018-03-07T08:57:08.056Z,8.02
2018-03-07T08:58:08.031Z,8.11
2018-03-07T08:59:08.022Z,8.11
2018-03-07T09:00:07.983Z,8.12
2018-03-07T09:01:07.970Z,8.17
2018-03-07T09:02:07.951Z,8.17
2018-03-07T09:03:07.945Z,8.22
2018-03-07T09:04:07.923Z,8.20
2018-03-07T09:05:07.902Z,8.26
2018-03-07T09:06:07.890Z,8.39
2018-03-07T09:07:07.887Z,8.54
2018-03-07T09:08:07.849Z,8.55
2018-03-07T09:09:07.833Z,8.60
2018-03-07T09:10:07.810Z,8.78
2018-03-07T09:11:07.813Z,8.96
2018-03-07T09:12:07.778Z,8.90
2018-03-07T09:13:07.762Z,9.04
2018-03-07T09:14:07.739Z,9.10
2018-03-07T09:15:07.754Z,8.94
2018-03-07T09:16:07.727Z,8.90
2018-03-07T09:17:07.752Z,8.96
2018-03-07T09:18:07.678Z,8.94
2018-03-07T09:19:07.658Z,8.90
2018-03-07T09:20:07.664Z,8.81
2018-03-07T09:21:07.625Z,8.78
2018-03-07T09:22:07.613Z,8.57
2018-03-07T09:23:07.594Z,8.62
2018-03-07T09:24:07.587Z,8.60
2018-03-07T09:25:07.603Z,8.55
2018-03-07T09:26:07.550Z,8.65
2018-03-07T09:27:07.540Z,8.62
2018-03-07T09:28:07.505Z,8.50
2018-03-07T09:29:07.521Z,8.62
2018-03-07T09:30:07.479Z,8.55
2018-03-07T09:31:07.469Z,8.57
2018-03-07T09:32:07.440Z,8.62
2018-03-07T09:33:07.472Z,8.84
2018-03-07T09:34:07.405Z,8.88
2018-03-07T09:35:07.393Z,8.96
2018-03-07T09:36:07.389Z,9.13
2018-03-07T09:37:07.373Z,9.24
2018-03-07T09:38:07.342Z,9.20
2018-03-07T09:39:07.339Z,9.27
2018-03-07T09:40:07.310Z,9.30
2018-03-07T09:41:07.288Z,9.40
2018-03-07T09:42:07.278Z,9.21
2018-03-07T09:43:07.253Z,9.27
2018-03-07T09:44:07.262Z,9.27
2018-03-07T09:45:07.266Z,9.27
2018-03-07T09:46:07.236Z,9.15
2018-03-07T09:47:07.226Z,9.16
2018-03-07T09:48:07.175Z,9.23
2018-03-07T09:49:07.173Z,9.38
2018-03-07T09:50:07.143Z,9.35
2018-03-07T09:51:07.127Z,9.20
2018-03-07T09:52:07.122Z,9.27
2018-03-07T09:53:07.096Z,9.21
2018-03-07T09:54:07.084Z,9.13
2018-03-07T09:55:07.068Z,9.12
2018-03-07T09:56:07.083Z,9.10
2018-03-07T09:57:07.035Z,9.23
2018-03-07T09:58:07.010Z,9.18
2018-03-07T09:59:07.000Z,9.25
2018-03-07T10:00:06.986Z,9.18
2018-03-07T10:01:06.974Z,9.35
2018-03-07T10:02:06.974Z,9.63
2018-03-07T10:03:06.940Z,9.66
2018-03-07T10:04:06.921Z,9.58
2018-03-07T10:05:06.909Z,9.61
2018-03-07T10:06:06.899Z,9.49
2018-03-07T10:07:06.925Z,9.34
2018-03-07T10:08:06.861Z,9.38
2018-03-07T10:09:06.838Z,9.42
2018-03-07T10:10:06.828Z,9.46
2018-03-07T10:11:06.807Z,9.25
2018-03-07T10:12:06.790Z,9.21
2018-03-07T10:13:06.774Z,9.38
2018-03-07T10:14:06.758Z,9.40
2018-03-07T10:15:06.764Z,9.48
2018-03-07T10:16:06.729Z,9.61
2018-03-07T10:17:06.715Z,10.25
2018-03-07T10:18:06.693Z,10.55
2018-03-07T10:19:06.687Z,10.66
2018-03-07T10:20:06.692Z,10.60
2018-03-07T10:21:06.657Z,10.24
2018-03-07T10:22:06.641Z,10.39
2018-03-07T10:23:06.629Z,10.42
2018-03-07T10:24:06.606Z,10.56
2018-03-07T10:25:06.595Z,10.78
2018-03-07T10:26:06.584Z,10.47
2018-03-07T10:27:06.571Z,10.59
2018-03-07T10:28:06.558Z,10.53
2018-03-07T10:29:06.533Z,10.42
2018-03-07T10:30:06.529Z,10.24
2018-03-07T10:31:06.511Z,10.07
2018-03-07T10:32:06.492Z,10.09
2018-03-07T10:33:06.483Z,10.17
2018-03-07T10:34:06.475Z,9.99
2018-03-07T10:35:06.457Z,9.85
2018-03-07T10:36:06.440Z,9.79
2018-03-07T10:37:06.425Z,9.60
2018-03-07T10:38:06.408Z,9.46
2018-03-07T10:39:06.399Z,9.43
2018-03-07T10:40:06.399Z,9.30
2018-03-07T10:41:06.360Z,9.23
2018-03-07T10:42:06.357Z,9.27
2018-03-07T10:43:06.326Z,9.25
2018-03-07T10:44:06.332Z,9.25
2018-03-07T10:45:06.322Z,9.10
2018-03-07T10:46:06.300Z,9.05
2018-03-07T10:47:06.324Z,9.10
2018-03-07T10:48:06.256Z,9.13
2018-03-07T10:49:06.235Z,9.16
2018-03-07T10:50:06.226Z,9.05
2018-03-07T10:51:06.231Z,8.99
2018-03-07T10:52:06.190Z,8.84
2018-03-07T10:53:06.171Z,8.91
2018-03-07T10:54:06.158Z,8.96
2018-03-07T10:55:06.152Z,8.88
2018-03-07T10:56:06.123Z,8.83
2018-03-07T10:57:06.127Z,8.71
2018-03-07T10:58:06.106Z,8.58
2018-03-07T10:59:06.080Z,8.53
2018-03-07T11:00:06.058Z,8.58
2018-03-07T11:01:06.057Z,8.48
2018-03-07T11:02:06.022Z,8.60
2018-03-07T11:03:06.030Z,8.72
2018-03-07T11:04:06.001Z,8.81
2018-03-07T11:05:05.978Z,8.97
2018-03-07T11:06:05.952Z,8.88
2018-03-07T11:07:05.936Z,8.86
2018-03-07T11:08:05.926Z,8.72
2018-03-07T11:09:05.901Z,8.69
2018-03-07T11:10:05.894Z,8.73
2018-03-07T11:11:05.865Z,8.79
2018-03-07T11:12:05.850Z,8.76
2018-03-07T11:13:05.840Z,8.81
2018-03-07T11:14:05.817Z,8.87
2018-03-07T11:15:05.801Z,8.97
2018-03-07T11:16:05.782Z,9.20
2018-03-07T11:17:05.773Z,9.30
2018-03-07T11:18:05.760Z,9.61
2018-03-07T11:19:05.771Z,9.82
2018-03-07T11:20:05.737Z,9.93
2018-03-07T11:21:05.708Z,9.96
2018-03-07T11:22:05.683Z,10.04
2018-03-07T11:23:05.673Z,10.00
2018-03-07T11:24:05.654Z,10.00
2018-03-07T11:25:05.641Z,9.83
2018-03-07T11:26:05.616Z,9.76
2018-03-07T11:27:05.618Z,9.64
2018-03-07T11:28:05.587Z,9.49
2018-03-07T11:29:05.574Z,9.48
2018-03-07T11:30:05.573Z,9.46
2018-03-07T11:31:05.539Z,9.48
2018-03-07T11:32:05.536Z,9.49
2018-03-07T11:33:05.527Z,9.38
2018-03-07T11:34:05.532Z,9.32
2018-03-07T11:35:05.477Z,9.43
2018-03-07T11:36:05.464Z,9.53
2018-03-07T11:37:05.439Z,9.71
2018-03-07T11:38:05.422Z,10.24
2018-03-07T11:39:05.426Z,10.47
2018-03-07T11:40:05.398Z,10.52
2018-03-07T11:41:05.384Z,10.86
2018-03-07T11:42:05.359Z,11.53
2018-03-07T11:43:05.343Z,11.34
2018-03-07T11:44:05.340Z,11.17
2018-03-07T11:45:05.364Z,11.10
2018-03-07T11:46:05.306Z,10.83
2018-03-07T11:47:05.293Z,10.63
2018-03-07T11:48:05.274Z,10.51
2018-03-07T11:49:05.271Z,10.52
2018-03-07T11:50:05.242Z,10.36
2018-03-07T11:51:05.249Z,10.40
2018-03-07T11:52:05.232Z,10.32
2018-03-07T11:53:05.217Z,10.12
2018-03-07T11:54:05.194Z,10.19
2018-03-07T11:55:05.172Z,10.17
2018-03-07T11:56:05.190Z,10.18
2018-03-07T11:57:05.172Z,10.12
2018-03-07T11:58:05.140Z,10.28
2018-03-07T11:59:05.148Z,10.37
2018-03-07T12:00:05.108Z,10.43
2018-03-07T12:01:05.118Z,10.53
2018-03-07T12:02:05.073Z,10.55
2018-03-07T12:03:05.069Z,10.70
2018-03-07T12:04:05.051Z,10.84
2018-03-07T12:05:05.028Z,11.21
2018-03-07T12:06:05.018Z,11.36
2018-03-07T12:07:05.009Z,11.28
2018-03-07T12:08:04.993Z,11.24
2018-03-07T12:09:04.993Z,11.17
2018-03-07T12:10:04.967Z,11.11
2018-03-07T12:11:04.978Z,11.02
2018-03-07T12:12:04.979Z,10.78
2018-03-07T12:13:04.926Z,10.70
2018-03-07T12:14:04.948Z,10.60
2018-03-07T12:15:04.900Z,10.53
2018-03-07T12:16:04.888Z,10.56
2018-03-07T12:17:04.862Z,10.55
2018-03-07T12:18:04.876Z,10.56
2018-03-07T12:19:04.841Z,10.47
2018-03-07T12:20:04.820Z,10.43
2018-03-07T12:21:04.810Z,10.52
2018-03-07T12:22:04.798Z,10.58
2018-03-07T12:23:04.792Z,10.73
2018-03-07T12:24:04.766Z,10.86
2018-03-07T12:25:04.753Z,10.91
2018-03-07T12:26:04.791Z,11.01
2018-03-07T12:27:04.722Z,10.83
2018-03-07T12:28:04.735Z,10.83
2018-03-07T12:29:04.693Z,11.03
2018-03-07T12:30:04.710Z,11.16
2018-03-07T12:31:04.674Z,11.25
2018-03-07T12:32:04.658Z,11.28
2018-03-07T12:33:04.658Z,11.32
2018-03-07T12:34:04.636Z,11.17
2018-03-07T12:35:04.616Z,11.03
2018-03-07T12:36:04.599Z,10.95
2018-03-07T12:37:04.585Z,10.96
2018-03-07T12:38:04.570Z,10.81
2018-03-07T12:39:04.555Z,10.66
2018-03-07T12:40:04.552Z,10.56
2018-03-07T12:41:04.527Z,10.55
2018-03-07T12:42:04.523Z,10.52
2018-03-07T12:43:04.502Z,10.62
2018-03-07T12:44:04.498Z,10.34
2018-03-07T12:45:04.480Z,10.30
2018-03-07T12:46:04.470Z,10.33
2018-03-07T12:47:04.441Z,10.43
2018-03-07T12:48:04.429Z,10.55
2018-03-07T12:49:04.413Z,11.25
2018-03-07T12:50:04.401Z,11.53
2018-03-07T12:51:04.429Z,11.38
2018-03-07T12:52:04.371Z,11.32
2018-03-07T12:53:04.368Z,11.13
2018-03-07T12:54:04.352Z,11.03
2018-03-07T12:55:04.345Z,10.80
2018-03-07T12:56:04.326Z,10.56
2018-03-07T12:57:04.296Z,10.52
2018-03-07T12:58:04.297Z,10.33
2018-03-07T12:59:04.274Z,10.28
2018-03-07T13:00:04.271Z,10.24
2018-03-07T13:01:04.288Z,10.25
2018-03-07T13:02:04.239Z,10.21
2018-03-07T13:03:04.222Z,10.21
2018-03-07T13:04:04.206Z,10.22
2018-03-07T13:05:04.198Z,10.28
2018-03-07T13:06:04.178Z,10.26
2018-03-07T13:07:04.185Z,10.25
2018-03-07T13:08:04.175Z,10.24
2018-03-07T13:09:04.136Z,10.17
2018-03-07T13:10:04.115Z,10.07
2018-03-07T13:11:04.121Z,10.03
2018-03-07T13:12:04.083Z,10.06
2018-03-07T13:13:04.133Z,10.09
2018-03-07T13:14:04.050Z,10.09